EDLN/MGL METAR and TAF weather

Enter ICAO airport designator
Station Type Date Time Source
EDLN METAR 2019/08/24 20:50 UTC NOAA

EDLN 242050Z AUTO 32002KT 9999 // NCD 17/14 Q1018


Station Type Date Time Source
EDLN Decoded METAR 2019/08/24 20:50 UTC NOAA

Station name not available
Aug 24, 2019 - 04:50 PM EDT / 2019.08.24 2050 UTC
Wind: from the NW (320 degrees) at 2 MPH (2 KT):0
Visibility: greater than 7 mile(s):0
Temperature: 62 F (17 C)
Dew Point: 57 F (14 C)
Relative Humidity: 82%
Pressure (altimeter): 30.06 in. Hg (1018 hPa)
ob: EDLN 242050Z AUTO 32002KT 9999 // NCD 17/14 Q1018
cycle: 21

Station Type Date Time Source
EDLN TAF 2010/02/22 14:20 UTC NOAA

METAR EDLN 221420Z 18010G20KT 090V240 9999 SCT030 BKN045 11/06 Q0986
RMK ATIS R=

Example: see airport list